sensor_id;sensor_type;location;lat;lon;timestamp;P1;durP1;ratioP1;P2;durP2;ratioP2
25982;SDS011;13773;48.868;10.730;2022-11-20T00:01:53;17.33;;;11.23;;
25982;SDS011;13773;48.868;10.730;2022-11-20T00:04:18;16.90;;;11.50;;
25982;SDS011;13773;48.868;10.730;2022-11-20T00:06:44;15.57;;;9.80;;
25982;SDS011;13773;48.868;10.730;2022-11-20T00:09:11;13.10;;;8.47;;
25982;SDS011;13773;48.868;10.730;2022-11-20T00:11:37;13.03;;;8.90;;
25982;SDS011;13773;48.868;10.730;2022-11-20T00:14:03;14.30;;;9.23;;
25982;SDS011;13773;48.868;10.730;2022-11-20T00:16:30;13.97;;;8.83;;
25982;SDS011;13773;48.868;10.730;2022-11-20T00:18:57;15.07;;;9.53;;
25982;SDS011;13773;48.868;10.730;2022-11-20T00:21:23;14.30;;;9.83;;
25982;SDS011;13773;48.868;10.730;2022-11-20T00:23:51;12.57;;;8.70;;
25982;SDS011;13773;48.868;10.730;2022-11-20T00:26:19;15.07;;;9.50;;
25982;SDS011;13773;48.868;10.730;2022-11-20T00:28:49;11.90;;;8.63;;
25982;SDS011;13773;48.868;10.730;2022-11-20T00:31:22;14.80;;;9.07;;
25982;SDS011;13773;48.868;10.730;2022-11-20T00:33:48;11.93;;;9.00;;
25982;SDS011;13773;48.868;10.730;2022-11-20T00:36:17;13.67;;;9.20;;
25982;SDS011;13773;48.868;10.730;2022-11-20T00:38:45;11.47;;;8.40;;
25982;SDS011;13773;48.868;10.730;2022-11-20T00:41:12;15.93;;;10.33;;
25982;SDS011;13773;48.868;10.730;2022-11-20T00:43:39;13.63;;;9.23;;
25982;SDS011;13773;48.868;10.730;2022-11-20T00:46:09;15.30;;;9.17;;
25982;SDS011;13773;48.868;10.730;2022-11-20T00:48:39;13.07;;;8.37;;
25982;SDS011;13773;48.868;10.730;2022-11-20T00:51:06;14.77;;;9.50;;
25982;SDS011;13773;48.868;10.730;2022-11-20T00:53:31;13.60;;;8.90;;
25982;SDS011;13773;48.868;10.730;2022-11-20T00:58:24;16.50;;;11.17;;
25982;SDS011;13773;48.868;10.730;2022-11-20T01:00:53;15.53;;;10.23;;
25982;SDS011;13773;48.868;10.730;2022-11-20T01:03:24;15.10;;;9.83;;
25982;SDS011;13773;48.868;10.730;2022-11-20T01:05:50;15.20;;;9.93;;
25982;SDS011;13773;48.868;10.730;2022-11-20T01:08:15;15.77;;;9.97;;
25982;SDS011;13773;48.868;10.730;2022-11-20T01:10:41;15.17;;;9.77;;
25982;SDS011;13773;48.868;10.730;2022-11-20T01:13:06;13.80;;;9.63;;
25982;SDS011;13773;48.868;10.730;2022-11-20T01:15:51;14.37;;;9.83;;
25982;SDS011;13773;48.868;10.730;2022-11-20T01:18:16;13.37;;;9.30;;
25982;SDS011;13773;48.868;10.730;2022-11-20T01:20:42;14.13;;;9.27;;
25982;SDS011;13773;48.868;10.730;2022-11-20T01:23:08;13.67;;;8.70;;
25982;SDS011;13773;48.868;10.730;2022-11-20T01:25:34;13.00;;;9.20;;
25982;SDS011;13773;48.868;10.730;2022-11-20T01:28:00;14.90;;;9.97;;
25982;SDS011;13773;48.868;10.730;2022-11-20T01:30:25;15.47;;;10.53;;
25982;SDS011;13773;48.868;10.730;2022-11-20T01:32:51;14.03;;;10.30;;
25982;SDS011;13773;48.868;10.730;2022-11-20T01:35:17;16.30;;;10.90;;
25982;SDS011;13773;48.868;10.730;2022-11-20T01:37:42;18.27;;;12.93;;
25982;SDS011;13773;48.868;10.730;2022-11-20T01:40:08;18.27;;;12.53;;
25982;SDS011;13773;48.868;10.730;2022-11-20T01:42:34;17.87;;;13.10;;
25982;SDS011;13773;48.868;10.730;2022-11-20T01:48:15;17.67;;;13.33;;
25982;SDS011;13773;48.868;10.730;2022-11-20T01:50:43;22.40;;;15.00;;
25982;SDS011;13773;48.868;10.730;2022-11-20T01:53:10;20.13;;;13.13;;
25982;SDS011;13773;48.868;10.730;2022-11-20T01:55:41;19.13;;;14.13;;
25982;SDS011;13773;48.868;10.730;2022-11-20T01:58:11;20.43;;;14.17;;
25982;SDS011;13773;48.868;10.730;2022-11-20T02:00:38;18.60;;;13.77;;
25982;SDS011;13773;48.868;10.730;2022-11-20T02:03:07;19.10;;;13.60;;
25982;SDS011;13773;48.868;10.730;2022-11-20T02:05:38;20.27;;;14.77;;
25982;SDS011;13773;48.868;10.730;2022-11-20T02:08:17;19.03;;;14.00;;
25982;SDS011;13773;48.868;10.730;2022-11-20T02:10:44;19.07;;;13.23;;
25982;SDS011;13773;48.868;10.730;2022-11-20T02:13:10;20.73;;;13.47;;
25982;SDS011;13773;48.868;10.730;2022-11-20T02:15:54;20.63;;;14.77;;
25982;SDS011;13773;48.868;10.730;2022-11-20T02:18:20;19.67;;;13.67;;
25982;SDS011;13773;48.868;10.730;2022-11-20T02:20:48;16.87;;;12.90;;
25982;SDS011;13773;48.868;10.730;2022-11-20T02:23:22;22.07;;;14.87;;
25982;SDS011;13773;48.868;10.730;2022-11-20T02:26:05;22.10;;;16.20;;
25982;SDS011;13773;48.868;10.730;2022-11-20T02:28:34;19.67;;;14.80;;
25982;SDS011;13773;48.868;10.730;2022-11-20T02:31:00;20.63;;;14.67;;
25982;SDS011;13773;48.868;10.730;2022-11-20T02:33:26;19.30;;;14.50;;
25982;SDS011;13773;48.868;10.730;2022-11-20T02:35:51;18.20;;;12.80;;
25982;SDS011;13773;48.868;10.730;2022-11-20T02:38:17;18.17;;;12.97;;
25982;SDS011;13773;48.868;10.730;2022-11-20T02:40:43;17.30;;;12.83;;
25982;SDS011;13773;48.868;10.730;2022-11-20T02:43:09;16.77;;;13.03;;
25982;SDS011;13773;48.868;10.730;2022-11-20T02:45:35;16.63;;;12.87;;
25982;SDS011;13773;48.868;10.730;2022-11-20T02:48:01;21.40;;;13.33;;
25982;SDS011;13773;48.868;10.730;2022-11-20T02:50:26;20.57;;;13.50;;
25982;SDS011;13773;48.868;10.730;2022-11-20T02:52:52;18.67;;;13.27;;
25982;SDS011;13773;48.868;10.730;2022-11-20T02:55:18;17.47;;;13.07;;
25982;SDS011;13773;48.868;10.730;2022-11-20T02:57:43;18.87;;;13.20;;
25982;SDS011;13773;48.868;10.730;2022-11-20T03:00:09;17.63;;;13.27;;
25982;SDS011;13773;48.868;10.730;2022-11-20T03:02:36;19.47;;;12.93;;
25982;SDS011;13773;48.868;10.730;2022-11-20T03:05:02;17.40;;;13.43;;
25982;SDS011;13773;48.868;10.730;2022-11-20T03:07:27;19.53;;;14.53;;
25982;SDS011;13773;48.868;10.730;2022-11-20T03:09:53;19.77;;;14.00;;
25982;SDS011;13773;48.868;10.730;2022-11-20T03:12:19;18.03;;;13.77;;
25982;SDS011;13773;48.868;10.730;2022-11-20T03:14:44;15.90;;;12.63;;
25982;SDS011;13773;48.868;10.730;2022-11-20T03:17:10;20.30;;;13.33;;
25982;SDS011;13773;48.868;10.730;2022-11-20T03:19:36;19.23;;;13.20;;
25982;SDS011;13773;48.868;10.730;2022-11-20T03:22:02;18.30;;;12.97;;
25982;SDS011;13773;48.868;10.730;2022-11-20T03:24:28;18.30;;;12.27;;
25982;SDS011;13773;48.868;10.730;2022-11-20T03:26:53;17.60;;;12.63;;
25982;SDS011;13773;48.868;10.730;2022-11-20T03:29:19;16.97;;;12.47;;
25982;SDS011;13773;48.868;10.730;2022-11-20T03:31:45;16.80;;;12.23;;
25982;SDS011;13773;48.868;10.730;2022-11-20T03:34:10;19.37;;;12.97;;
25982;SDS011;13773;48.868;10.730;2022-11-20T03:36:39;19.47;;;12.77;;
25982;SDS011;13773;48.868;10.730;2022-11-20T03:39:06;18.03;;;12.10;;
25982;SDS011;13773;48.868;10.730;2022-11-20T03:41:35;17.30;;;11.63;;
25982;SDS011;13773;48.868;10.730;2022-11-20T03:44:04;17.80;;;11.93;;
25982;SDS011;13773;48.868;10.730;2022-11-20T03:46:31;15.90;;;11.70;;
25982;SDS011;13773;48.868;10.730;2022-11-20T03:48:57;15.03;;;11.13;;
25982;SDS011;13773;48.868;10.730;2022-11-20T03:51:24;14.60;;;10.80;;
25982;SDS011;13773;48.868;10.730;2022-11-20T03:53:52;14.13;;;10.70;;
25982;SDS011;13773;48.868;10.730;2022-11-20T03:56:21;15.17;;;10.60;;
25982;SDS011;13773;48.868;10.730;2022-11-20T03:58:48;16.07;;;11.07;;
25982;SDS011;13773;48.868;10.730;2022-11-20T04:01:15;15.50;;;10.90;;
25982;SDS011;13773;48.868;10.730;2022-11-20T04:03:46;13.40;;;9.80;;
25982;SDS011;13773;48.868;10.730;2022-11-20T04:06:13;19.47;;;10.67;;
25982;SDS011;13773;48.868;10.730;2022-11-20T04:08:41;13.03;;;10.20;;
25982;SDS011;13773;48.868;10.730;2022-11-20T04:11:08;12.87;;;9.47;;
25982;SDS011;13773;48.868;10.730;2022-11-20T04:13:37;14.50;;;9.83;;
25982;SDS011;13773;48.868;10.730;2022-11-20T04:16:03;11.67;;;9.80;;
25982;SDS011;13773;48.868;10.730;2022-11-20T04:18:30;13.80;;;9.63;;
25982;SDS011;13773;48.868;10.730;2022-11-20T04:20:56;13.43;;;9.43;;
25982;SDS011;13773;48.868;10.730;2022-11-20T04:23:23;16.03;;;9.43;;
25982;SDS011;13773;48.868;10.730;2022-11-20T04:25:48;12.07;;;9.33;;
25982;SDS011;13773;48.868;10.730;2022-11-20T04:28:14;12.00;;;9.13;;
25982;SDS011;13773;48.868;10.730;2022-11-20T04:30:40;11.60;;;9.10;;
25982;SDS011;13773;48.868;10.730;2022-11-20T04:33:06;12.60;;;8.57;;
25982;SDS011;13773;48.868;10.730;2022-11-20T04:35:35;11.33;;;8.10;;
25982;SDS011;13773;48.868;10.730;2022-11-20T04:38:01;11.60;;;8.40;;
25982;SDS011;13773;48.868;10.730;2022-11-20T04:40:27;12.43;;;9.50;;
25982;SDS011;13773;48.868;10.730;2022-11-20T04:42:53;11.03;;;8.63;;
25982;SDS011;13773;48.868;10.730;2022-11-20T04:45:19;11.47;;;8.93;;
25982;SDS011;13773;48.868;10.730;2022-11-20T04:47:45;11.93;;;8.03;;
25982;SDS011;13773;48.868;10.730;2022-11-20T04:50:11;9.43;;;7.87;;
25982;SDS011;13773;48.868;10.730;2022-11-20T04:52:37;9.83;;;8.53;;
25982;SDS011;13773;48.868;10.730;2022-11-20T04:55:03;9.43;;;7.57;;
25982;SDS011;13773;48.868;10.730;2022-11-20T04:57:29;9.90;;;7.70;;
25982;SDS011;13773;48.868;10.730;2022-11-20T04:59:55;9.90;;;7.63;;
25982;SDS011;13773;48.868;10.730;2022-11-20T05:02:20;9.53;;;7.83;;
25982;SDS011;13773;48.868;10.730;2022-11-20T05:04:46;10.63;;;8.67;;
25982;SDS011;13773;48.868;10.730;2022-11-20T05:07:12;10.93;;;7.40;;
25982;SDS011;13773;48.868;10.730;2022-11-20T05:09:38;8.77;;;7.00;;
25982;SDS011;13773;48.868;10.730;2022-11-20T05:12:04;9.93;;;7.37;;
25982;SDS011;13773;48.868;10.730;2022-11-20T05:14:32;9.37;;;7.50;;
25982;SDS011;13773;48.868;10.730;2022-11-20T05:16:57;8.00;;;7.20;;
25982;SDS011;13773;48.868;10.730;2022-11-20T05:19:23;9.90;;;7.70;;
25982;SDS011;13773;48.868;10.730;2022-11-20T05:21:49;9.73;;;7.70;;
25982;SDS011;13773;48.868;10.730;2022-11-20T05:24:14;10.23;;;6.90;;
25982;SDS011;13773;48.868;10.730;2022-11-20T05:26:40;9.90;;;7.10;;
25982;SDS011;13773;48.868;10.730;2022-11-20T05:29:06;11.90;;;7.07;;
25982;SDS011;13773;48.868;10.730;2022-11-20T05:31:31;9.00;;;7.10;;
25982;SDS011;13773;48.868;10.730;2022-11-20T05:33:57;7.40;;;6.50;;
25982;SDS011;13773;48.868;10.730;2022-11-20T05:36:23;8.97;;;6.93;;
25982;SDS011;13773;48.868;10.730;2022-11-20T05:38:49;7.80;;;6.20;;
25982;SDS011;13773;48.868;10.730;2022-11-20T05:41:15;12.10;;;7.37;;
25982;SDS011;13773;48.868;10.730;2022-11-20T05:43:43;7.20;;;6.47;;
25982;SDS011;13773;48.868;10.730;2022-11-20T05:46:11;10.27;;;6.33;;
25982;SDS011;13773;48.868;10.730;2022-11-20T05:48:38;9.53;;;7.43;;
25982;SDS011;13773;48.868;10.730;2022-11-20T05:51:05;8.43;;;6.87;;
25982;SDS011;13773;48.868;10.730;2022-11-20T05:53:33;9.13;;;6.70;;
25982;SDS011;13773;48.868;10.730;2022-11-20T05:56:04;6.30;;;5.60;;
25982;SDS011;13773;48.868;10.730;2022-11-20T05:58:31;7.47;;;6.40;;
25982;SDS011;13773;48.868;10.730;2022-11-20T06:01:07;8.83;;;6.80;;
25982;SDS011;13773;48.868;10.730;2022-11-20T06:03:35;8.57;;;6.13;;
25982;SDS011;13773;48.868;10.730;2022-11-20T06:06:02;8.43;;;6.47;;
25982;SDS011;13773;48.868;10.730;2022-11-20T06:08:29;10.47;;;6.40;;
25982;SDS011;13773;48.868;10.730;2022-11-20T06:10:55;7.03;;;5.73;;
25982;SDS011;13773;48.868;10.730;2022-11-20T06:13:21;7.40;;;6.43;;
25982;SDS011;13773;48.868;10.730;2022-11-20T06:15:50;7.37;;;5.83;;
25982;SDS011;13773;48.868;10.730;2022-11-20T06:18:17;7.27;;;5.80;;
25982;SDS011;13773;48.868;10.730;2022-11-20T06:20:44;7.10;;;5.67;;
25982;SDS011;13773;48.868;10.730;2022-11-20T06:23:10;7.07;;;5.93;;
25982;SDS011;13773;48.868;10.730;2022-11-20T06:25:39;6.83;;;5.77;;
25982;SDS011;13773;48.868;10.730;2022-11-20T06:28:06;8.33;;;6.13;;
25982;SDS011;13773;48.868;10.730;2022-11-20T06:30:32;7.70;;;5.33;;
25982;SDS011;13773;48.868;10.730;2022-11-20T06:32:57;8.63;;;5.57;;
25982;SDS011;13773;48.868;10.730;2022-11-20T06:35:23;7.13;;;5.37;;
25982;SDS011;13773;48.868;10.730;2022-11-20T06:37:49;8.27;;;5.30;;
25982;SDS011;13773;48.868;10.730;2022-11-20T06:40:14;8.00;;;5.47;;
25982;SDS011;13773;48.868;10.730;2022-11-20T06:42:40;5.60;;;5.10;;
25982;SDS011;13773;48.868;10.730;2022-11-20T06:45:06;6.50;;;5.17;;
25982;SDS011;13773;48.868;10.730;2022-11-20T06:47:32;7.50;;;5.17;;
25982;SDS011;13773;48.868;10.730;2022-11-20T06:49:58;6.57;;;5.60;;
25982;SDS011;13773;48.868;10.730;2022-11-20T06:52:24;5.70;;;4.77;;
25982;SDS011;13773;48.868;10.730;2022-11-20T06:54:49;6.10;;;4.60;;
25982;SDS011;13773;48.868;10.730;2022-11-20T06:57:15;5.17;;;4.67;;
25982;SDS011;13773;48.868;10.730;2022-11-20T06:59:41;8.07;;;4.90;;
25982;SDS011;13773;48.868;10.730;2022-11-20T07:02:09;5.60;;;4.90;;
25982;SDS011;13773;48.868;10.730;2022-11-20T07:04:38;7.43;;;4.80;;
25982;SDS011;13773;48.868;10.730;2022-11-20T07:07:04;5.33;;;4.70;;
25982;SDS011;13773;48.868;10.730;2022-11-20T07:09:31;5.13;;;4.63;;
25982;SDS011;13773;48.868;10.730;2022-11-20T07:11:57;6.73;;;4.73;;
25982;SDS011;13773;48.868;10.730;2022-11-20T07:14:23;5.73;;;4.67;;
25982;SDS011;13773;48.868;10.730;2022-11-20T07:16:49;6.57;;;5.20;;
25982;SDS011;13773;48.868;10.730;2022-11-20T07:19:14;6.07;;;4.80;;
25982;SDS011;13773;48.868;10.730;2022-11-20T07:21:40;5.10;;;4.30;;
25982;SDS011;13773;48.868;10.730;2022-11-20T07:24:06;5.20;;;4.43;;
25982;SDS011;13773;48.868;10.730;2022-11-20T07:26:32;5.17;;;4.67;;
25982;SDS011;13773;48.868;10.730;2022-11-20T07:28:57;6.87;;;4.67;;
25982;SDS011;13773;48.868;10.730;2022-11-20T07:31:23;5.83;;;4.80;;
25982;SDS011;13773;48.868;10.730;2022-11-20T07:33:49;8.67;;;5.17;;
25982;SDS011;13773;48.868;10.730;2022-11-20T07:36:15;5.77;;;5.17;;
25982;SDS011;13773;48.868;10.730;2022-11-20T07:38:40;5.40;;;4.67;;
25982;SDS011;13773;48.868;10.730;2022-11-20T07:41:06;7.17;;;5.50;;
25982;SDS011;13773;48.868;10.730;2022-11-20T07:43:32;8.30;;;5.47;;
25982;SDS011;13773;48.868;10.730;2022-11-20T07:45:58;6.40;;;5.00;;
25982;SDS011;13773;48.868;10.730;2022-11-20T07:48:24;9.90;;;5.40;;
25982;SDS011;13773;48.868;10.730;2022-11-20T07:50:53;7.43;;;5.67;;
25982;SDS011;13773;48.868;10.730;2022-11-20T07:53:22;8.17;;;5.93;;
25982;SDS011;13773;48.868;10.730;2022-11-20T07:55:48;7.77;;;5.70;;
25982;SDS011;13773;48.868;10.730;2022-11-20T07:58:14;7.03;;;5.50;;
25982;SDS011;13773;48.868;10.730;2022-11-20T08:00:40;7.37;;;5.50;;
25982;SDS011;13773;48.868;10.730;2022-11-20T08:03:06;6.03;;;4.77;;
25982;SDS011;13773;48.868;10.730;2022-11-20T08:05:32;5.07;;;4.40;;
25982;SDS011;13773;48.868;10.730;2022-11-20T08:07:58;4.97;;;4.47;;
25982;SDS011;13773;48.868;10.730;2022-11-20T08:10:24;6.40;;;4.50;;
25982;SDS011;13773;48.868;10.730;2022-11-20T08:12:50;5.87;;;4.80;;
25982;SDS011;13773;48.868;10.730;2022-11-20T08:15:36;6.43;;;5.03;;
25982;SDS011;13773;48.868;10.730;2022-11-20T08:18:05;7.00;;;4.97;;
25982;SDS011;13773;48.868;10.730;2022-11-20T08:20:32;5.20;;;4.27;;
25982;SDS011;13773;48.868;10.730;2022-11-20T08:23:02;4.47;;;3.90;;
25982;SDS011;13773;48.868;10.730;2022-11-20T08:25:32;5.37;;;3.93;;
25982;SDS011;13773;48.868;10.730;2022-11-20T08:27:59;6.13;;;4.23;;
25982;SDS011;13773;48.868;10.730;2022-11-20T08:30:26;5.43;;;4.30;;
25982;SDS011;13773;48.868;10.730;2022-11-20T08:32:52;5.23;;;3.83;;
25982;SDS011;13773;48.868;10.730;2022-11-20T08:35:18;5.87;;;4.23;;
25982;SDS011;13773;48.868;10.730;2022-11-20T08:37:47;6.10;;;4.37;;
25982;SDS011;13773;48.868;10.730;2022-11-20T08:40:14;5.60;;;4.73;;
25982;SDS011;13773;48.868;10.730;2022-11-20T08:42:47;6.63;;;5.03;;
25982;SDS011;13773;48.868;10.730;2022-11-20T08:45:14;7.47;;;5.70;;
25982;SDS011;13773;48.868;10.730;2022-11-20T08:47:41;6.00;;;4.40;;
25982;SDS011;13773;48.868;10.730;2022-11-20T08:50:07;5.00;;;4.10;;
25982;SDS011;13773;48.868;10.730;2022-11-20T08:52:37;5.43;;;4.93;;
25982;SDS011;13773;48.868;10.730;2022-11-20T08:55:03;5.23;;;4.73;;
25982;SDS011;13773;48.868;10.730;2022-11-20T08:57:36;5.77;;;4.93;;
25982;SDS011;13773;48.868;10.730;2022-11-20T09:00:04;5.77;;;5.00;;
25982;SDS011;13773;48.868;10.730;2022-11-20T09:02:31;5.53;;;5.03;;
25982;SDS011;13773;48.868;10.730;2022-11-20T09:04:57;6.57;;;5.97;;
25982;SDS011;13773;48.868;10.730;2022-11-20T09:07:23;6.43;;;5.50;;
25982;SDS011;13773;48.868;10.730;2022-11-20T09:09:49;5.93;;;4.97;;
25982;SDS011;13773;48.868;10.730;2022-11-20T09:12:14;5.93;;;5.17;;
25982;SDS011;13773;48.868;10.730;2022-11-20T09:14:40;7.23;;;6.07;;
25982;SDS011;13773;48.868;10.730;2022-11-20T09:17:06;7.87;;;6.07;;
25982;SDS011;13773;48.868;10.730;2022-11-20T09:19:32;9.30;;;6.03;;
25982;SDS011;13773;48.868;10.730;2022-11-20T09:21:58;8.77;;;6.70;;
25982;SDS011;13773;48.868;10.730;2022-11-20T09:24:25;7.83;;;6.53;;
25982;SDS011;13773;48.868;10.730;2022-11-20T09:26:51;9.40;;;6.40;;
25982;SDS011;13773;48.868;10.730;2022-11-20T09:29:17;7.93;;;6.10;;
25982;SDS011;13773;48.868;10.730;2022-11-20T09:31:43;6.27;;;5.57;;
25982;SDS011;13773;48.868;10.730;2022-11-20T09:34:08;7.57;;;6.37;;
25982;SDS011;13773;48.868;10.730;2022-11-20T09:36:35;6.33;;;5.73;;
25982;SDS011;13773;48.868;10.730;2022-11-20T09:39:00;6.93;;;6.23;;
25982;SDS011;13773;48.868;10.730;2022-11-20T09:47:08;7.53;;;6.70;;
25982;SDS011;13773;48.868;10.730;2022-11-20T09:55:01;7.17;;;5.80;;
25982;SDS011;13773;48.868;10.730;2022-11-20T09:57:36;8.87;;;6.17;;
25982;SDS011;13773;48.868;10.730;2022-11-20T10:00:05;7.13;;;5.73;;
25982;SDS011;13773;48.868;10.730;2022-11-20T10:05:27;8.13;;;6.40;;
25982;SDS011;13773;48.868;10.730;2022-11-20T10:08:08;8.20;;;6.20;;
25982;SDS011;13773;48.868;10.730;2022-11-20T10:13:29;8.07;;;6.00;;
25982;SDS011;13773;48.868;10.730;2022-11-20T10:19:08;8.43;;;6.47;;
25982;SDS011;13773;48.868;10.730;2022-11-20T10:21:41;9.67;;;7.47;;
25982;SDS011;13773;48.868;10.730;2022-11-20T10:29:38;8.07;;;6.00;;
25982;SDS011;13773;48.868;10.730;2022-11-20T10:32:11;8.87;;;7.13;;
25982;SDS011;13773;48.868;10.730;2022-11-20T10:34:46;9.17;;;7.57;;
25982;SDS011;13773;48.868;10.730;2022-11-20T10:37:34;9.13;;;7.30;;
25982;SDS011;13773;48.868;10.730;2022-11-20T10:40:23;6.33;;;5.70;;
25982;SDS011;13773;48.868;10.730;2022-11-20T10:43:06;7.47;;;6.67;;
25982;SDS011;13773;48.868;10.730;2022-11-20T10:45:58;8.77;;;6.93;;
25982;SDS011;13773;48.868;10.730;2022-11-20T10:48:30;8.83;;;6.90;;
25982;SDS011;13773;48.868;10.730;2022-11-20T10:56:47;9.57;;;7.40;;
25982;SDS011;13773;48.868;10.730;2022-11-20T11:02:35;7.23;;;5.93;;
25982;SDS011;13773;48.868;10.730;2022-11-20T11:05:11;7.97;;;5.33;;
25982;SDS011;13773;48.868;10.730;2022-11-20T11:08:00;10.60;;;7.10;;
25982;SDS011;13773;48.868;10.730;2022-11-20T11:10:28;11.30;;;8.23;;
25982;SDS011;13773;48.868;10.730;2022-11-20T11:13:02;9.10;;;6.43;;
25982;SDS011;13773;48.868;10.730;2022-11-20T11:18:04;9.00;;;5.43;;
25982;SDS011;13773;48.868;10.730;2022-11-20T11:20:33;7.50;;;5.87;;
25982;SDS011;13773;48.868;10.730;2022-11-20T11:22:59;7.47;;;5.77;;
25982;SDS011;13773;48.868;10.730;2022-11-20T11:25:32;9.30;;;6.23;;
25982;SDS011;13773;48.868;10.730;2022-11-20T11:30:44;6.00;;;4.93;;
25982;SDS011;13773;48.868;10.730;2022-11-20T11:33:20;6.30;;;5.57;;
25982;SDS011;13773;48.868;10.730;2022-11-20T11:35:47;7.40;;;5.23;;
25982;SDS011;13773;48.868;10.730;2022-11-20T11:38:19;7.53;;;5.33;;
25982;SDS011;13773;48.868;10.730;2022-11-20T11:40:59;6.23;;;4.57;;
25982;SDS011;13773;48.868;10.730;2022-11-20T11:43:26;6.47;;;4.93;;
25982;SDS011;13773;48.868;10.730;2022-11-20T11:46:24;6.17;;;4.67;;
25982;SDS011;13773;48.868;10.730;2022-11-20T11:48:57;5.20;;;4.70;;
25982;SDS011;13773;48.868;10.730;2022-11-20T11:57:16;5.17;;;4.50;;
25982;SDS011;13773;48.868;10.730;2022-11-20T12:02:38;5.17;;;4.30;;
25982;SDS011;13773;48.868;10.730;2022-11-20T12:05:26;5.33;;;3.80;;
25982;SDS011;13773;48.868;10.730;2022-11-20T12:08:23;4.27;;;2.97;;
25982;SDS011;13773;48.868;10.730;2022-11-20T12:13:54;4.27;;;3.30;;
25982;SDS011;13773;48.868;10.730;2022-11-20T12:16:23;4.67;;;3.40;;
25982;SDS011;13773;48.868;10.730;2022-11-20T12:18:50;3.77;;;3.33;;
25982;SDS011;13773;48.868;10.730;2022-11-20T12:21:18;3.63;;;3.33;;
25982;SDS011;13773;48.868;10.730;2022-11-20T12:24:00;5.20;;;3.63;;
25982;SDS011;13773;48.868;10.730;2022-11-20T12:31:44;3.53;;;3.10;;
25982;SDS011;13773;48.868;10.730;2022-11-20T12:37:36;5.57;;;3.60;;
25982;SDS011;13773;48.868;10.730;2022-11-20T12:54:09;1.43;;;1.30;;
25982;SDS011;13773;48.868;10.730;2022-11-20T12:57:01;2.00;;;1.80;;
25982;SDS011;13773;48.868;10.730;2022-11-20T13:00:07;2.10;;;1.90;;
25982;SDS011;13773;48.868;10.730;2022-11-20T13:02:44;4.63;;;2.67;;
25982;SDS011;13773;48.868;10.730;2022-11-20T13:08:45;2.57;;;2.37;;
25982;SDS011;13773;48.868;10.730;2022-11-20T13:11:24;4.47;;;3.53;;
25982;SDS011;13773;48.868;10.730;2022-11-20T13:16:41;2.77;;;2.33;;
25982;SDS011;13773;48.868;10.730;2022-11-20T13:19:14;2.63;;;2.10;;
25982;SDS011;13773;48.868;10.730;2022-11-20T13:21:42;2.87;;;2.50;;
25982;SDS011;13773;48.868;10.730;2022-11-20T13:27:01;3.07;;;2.17;;
25982;SDS011;13773;48.868;10.730;2022-11-20T13:29:27;2.70;;;2.50;;
25982;SDS011;13773;48.868;10.730;2022-11-20T13:32:01;3.67;;;2.70;;
25982;SDS011;13773;48.868;10.730;2022-11-20T13:34:29;2.87;;;2.63;;
25982;SDS011;13773;48.868;10.730;2022-11-20T13:36:56;3.53;;;3.20;;
25982;SDS011;13773;48.868;10.730;2022-11-20T13:44:42;3.53;;;3.23;;
25982;SDS011;13773;48.868;10.730;2022-11-20T13:49:51;3.23;;;2.90;;
25982;SDS011;13773;48.868;10.730;2022-11-20T13:55:31;4.00;;;3.27;;
25982;SDS011;13773;48.868;10.730;2022-11-20T14:00:58;8.07;;;6.17;;
25982;SDS011;13773;48.868;10.730;2022-11-20T14:03:39;9.03;;;4.07;;
25982;SDS011;13773;48.868;10.730;2022-11-20T14:06:11;8.80;;;5.13;;
25982;SDS011;13773;48.868;10.730;2022-11-20T14:08:57;6.37;;;3.87;;
25982;SDS011;13773;48.868;10.730;2022-11-20T14:11:26;6.30;;;4.00;;
25982;SDS011;13773;48.868;10.730;2022-11-20T14:14:04;3.60;;;2.80;;
25982;SDS011;13773;48.868;10.730;2022-11-20T14:16:38;5.30;;;3.10;;
25982;SDS011;13773;48.868;10.730;2022-11-20T14:21:46;4.73;;;3.00;;
25982;SDS011;13773;48.868;10.730;2022-11-20T14:24:13;7.80;;;4.10;;
25982;SDS011;13773;48.868;10.730;2022-11-20T14:26:43;8.17;;;4.80;;
25982;SDS011;13773;48.868;10.730;2022-11-20T14:29:14;5.23;;;2.53;;
25982;SDS011;13773;48.868;10.730;2022-11-20T14:31:42;3.73;;;3.17;;
25982;SDS011;13773;48.868;10.730;2022-11-20T14:34:31;4.93;;;4.03;;
25982;SDS011;13773;48.868;10.730;2022-11-20T14:37:01;4.67;;;2.50;;
25982;SDS011;13773;48.868;10.730;2022-11-20T14:39:30;7.07;;;3.50;;
25982;SDS011;13773;48.868;10.730;2022-11-20T14:42:00;6.80;;;4.47;;
25982;SDS011;13773;48.868;10.730;2022-11-20T14:44:27;6.80;;;5.07;;
25982;SDS011;13773;48.868;10.730;2022-11-20T14:46:56;8.03;;;4.80;;
25982;SDS011;13773;48.868;10.730;2022-11-20T14:49:23;7.43;;;4.17;;
25982;SDS011;13773;48.868;10.730;2022-11-20T14:52:10;4.57;;;3.27;;
25982;SDS011;13773;48.868;10.730;2022-11-20T14:54:50;6.67;;;3.60;;
25982;SDS011;13773;48.868;10.730;2022-11-20T15:00:03;3.43;;;2.77;;
25982;SDS011;13773;48.868;10.730;2022-11-20T15:02:45;3.37;;;2.37;;
25982;SDS011;13773;48.868;10.730;2022-11-20T15:05:12;5.27;;;4.30;;
25982;SDS011;13773;48.868;10.730;2022-11-20T15:07:40;2.43;;;2.00;;
25982;SDS011;13773;48.868;10.730;2022-11-20T15:10:19;3.63;;;2.10;;
25982;SDS011;13773;48.868;10.730;2022-11-20T15:12:53;2.97;;;1.90;;
25982;SDS011;13773;48.868;10.730;2022-11-20T15:15:40;1.93;;;1.73;;
25982;SDS011;13773;48.868;10.730;2022-11-20T15:18:13;4.23;;;2.43;;
25982;SDS011;13773;48.868;10.730;2022-11-20T15:20:41;5.80;;;2.73;;
25982;SDS011;13773;48.868;10.730;2022-11-20T15:23:12;3.90;;;2.73;;
25982;SDS011;13773;48.868;10.730;2022-11-20T15:25:39;4.50;;;3.00;;
25982;SDS011;13773;48.868;10.730;2022-11-20T15:28:15;2.23;;;1.70;;
25982;SDS011;13773;48.868;10.730;2022-11-20T15:30:47;3.63;;;2.17;;
25982;SDS011;13773;48.868;10.730;2022-11-20T15:33:14;2.60;;;2.20;;
25982;SDS011;13773;48.868;10.730;2022-11-20T15:35:41;2.80;;;2.37;;
25982;SDS011;13773;48.868;10.730;2022-11-20T15:38:07;3.13;;;2.40;;
25982;SDS011;13773;48.868;10.730;2022-11-20T15:40:33;3.53;;;2.47;;
25982;SDS011;13773;48.868;10.730;2022-11-20T15:42:58;3.50;;;2.33;;
25982;SDS011;13773;48.868;10.730;2022-11-20T15:45:37;3.30;;;2.50;;
25982;SDS011;13773;48.868;10.730;2022-11-20T15:48:17;4.07;;;2.93;;
25982;SDS011;13773;48.868;10.730;2022-11-20T15:53:25;2.93;;;2.37;;
25982;SDS011;13773;48.868;10.730;2022-11-20T15:55:51;3.60;;;2.80;;
25982;SDS011;13773;48.868;10.730;2022-11-20T15:58:17;3.20;;;2.90;;
25982;SDS011;13773;48.868;10.730;2022-11-20T16:00:43;3.63;;;2.90;;
25982;SDS011;13773;48.868;10.730;2022-11-20T16:03:10;3.13;;;2.60;;
25982;SDS011;13773;48.868;10.730;2022-11-20T16:05:36;9.03;;;3.80;;
25982;SDS011;13773;48.868;10.730;2022-11-20T16:08:02;2.60;;;2.40;;
25982;SDS011;13773;48.868;10.730;2022-11-20T16:10:28;3.17;;;2.10;;
25982;SDS011;13773;48.868;10.730;2022-11-20T16:12:54;2.10;;;1.90;;
25982;SDS011;13773;48.868;10.730;2022-11-20T16:15:38;2.73;;;1.93;;
25982;SDS011;13773;48.868;10.730;2022-11-20T16:18:10;2.40;;;2.20;;
25982;SDS011;13773;48.868;10.730;2022-11-20T16:20:36;3.10;;;2.23;;
25982;SDS011;13773;48.868;10.730;2022-11-20T16:23:03;3.20;;;2.43;;
25982;SDS011;13773;48.868;10.730;2022-11-20T16:25:29;4.53;;;2.50;;
25982;SDS011;13773;48.868;10.730;2022-11-20T16:27:55;3.70;;;2.40;;
25982;SDS011;13773;48.868;10.730;2022-11-20T16:30:21;4.53;;;2.47;;